createdAt,value
2024-02-15T00:03:37.329Z,10.50
2024-02-15T00:08:39.949Z,10.50
2024-02-15T00:13:42.169Z,10.60
2024-02-15T00:18:46.393Z,10.60
2024-02-15T00:23:50.590Z,10.60
2024-02-15T00:28:52.648Z,10.60
2024-02-15T00:33:57.025Z,10.60
2024-02-15T00:39:02.302Z,10.50
2024-02-15T00:44:05.290Z,11.20
2024-02-15T00:49:07.733Z,10.60
2024-02-15T00:54:10.896Z,10.70
2024-02-15T00:59:14.271Z,10.50
2024-02-15T01:04:16.633Z,10.50
2024-02-15T01:09:19.708Z,10.50
2024-02-15T01:14:22.777Z,10.40
2024-02-15T01:19:24.692Z,10.40
2024-02-15T01:24:26.598Z,10.30
2024-02-15T01:29:28.901Z,10.30
2024-02-15T01:34:31.006Z,10.20
2024-02-15T01:39:33.212Z,10.20
2024-02-15T01:44:38.347Z,10.20
2024-02-15T01:49:42.826Z,10.20
2024-02-15T01:54:47.027Z,10.20
2024-02-15T01:59:51.123Z,10.20
2024-02-15T02:04:53.115Z,10.10
2024-02-15T02:09:55.385Z,10.00
2024-02-15T02:14:57.772Z,10.10
2024-02-15T02:19:59.694Z,10.10
2024-02-15T02:25:12.102Z,10.10
2024-02-15T02:30:20.333Z,10.10
2024-02-15T02:35:22.876Z,10.00
2024-02-15T02:40:24.973Z,10.70
2024-02-15T02:45:27.287Z,10.10
2024-02-15T02:50:29.683Z,10.10
2024-02-15T02:55:32.764Z,10.10
2024-02-15T03:00:35.101Z,10.00
2024-02-15T03:05:36.972Z,10.90
2024-02-15T03:10:39.442Z,10.00
2024-02-15T03:15:42.913Z,10.10
2024-02-15T03:20:46.684Z,9.80
2024-02-15T03:25:51.268Z,9.70
2024-02-15T03:30:54.068Z,11.30
2024-02-15T03:36:01.066Z,9.70
2024-02-15T03:41:03.787Z,9.70
2024-02-15T03:46:06.069Z,9.60
2024-02-15T03:51:08.521Z,9.50
2024-02-15T03:56:10.370Z,9.50
2024-02-15T04:01:14.854Z,9.50
2024-02-15T04:06:17.646Z,9.50
2024-02-15T04:11:20.999Z,10.30
2024-02-15T04:16:24.084Z,9.40
2024-02-15T04:21:26.149Z,9.50
2024-02-15T04:26:28.380Z,9.60
2024-02-15T04:31:30.572Z,10.50
2024-02-15T04:36:35.224Z,9.80
2024-02-15T04:41:37.290Z,9.70
2024-02-15T04:46:40.104Z,9.50
2024-02-15T04:51:42.794Z,9.60
2024-02-15T04:56:45.382Z,9.70
2024-02-15T05:01:47.143Z,9.90
2024-02-15T05:06:49.266Z,9.60
2024-02-15T05:11:51.746Z,9.60
2024-02-15T05:16:53.586Z,9.70
2024-02-15T05:21:57.246Z,9.90
2024-02-15T05:26:59.222Z,9.90
2024-02-15T05:32:02.747Z,9.80
2024-02-15T05:37:04.781Z,9.90
2024-02-15T05:47:09.075Z,9.80
2024-02-15T05:52:12.802Z,9.70
2024-02-15T05:57:14.674Z,9.80
2024-02-15T06:02:18.615Z,9.80
2024-02-15T06:07:20.551Z,9.90
2024-02-15T06:12:22.670Z,9.90
2024-02-15T06:17:25.870Z,11.40
2024-02-15T06:22:30.493Z,10.80
2024-02-15T06:27:33.866Z,9.90
2024-02-15T06:32:54.487Z,10.00
2024-02-15T06:38:15.601Z,10.00
2024-02-15T06:43:17.476Z,9.90
2024-02-15T06:48:19.384Z,10.00
2024-02-15T06:53:21.563Z,10.00
2024-02-15T06:58:23.846Z,9.90
2024-02-15T07:03:26.417Z,9.90
2024-02-15T07:08:28.832Z,10.00
2024-02-15T07:13:30.890Z,10.00
2024-02-15T07:18:35.419Z,10.80
2024-02-15T07:23:41.080Z,10.00
2024-02-15T07:28:43.026Z,10.10
2024-02-15T07:33:45.666Z,10.30
2024-02-15T07:38:49.574Z,10.40
2024-02-15T07:43:53.383Z,10.90
2024-02-15T07:48:58.675Z,10.40
2024-02-15T07:54:02.707Z,10.50
2024-02-15T07:59:05.437Z,10.60
2024-02-15T08:04:09.401Z,10.80
2024-02-15T08:09:15.846Z,11.20
2024-02-15T08:14:18.028Z,11.30
2024-02-15T08:19:20.416Z,11.50
2024-02-15T08:24:22.670Z,11.80
2024-02-15T08:29:24.663Z,12.10
2024-02-15T08:34:26.489Z,12.70
2024-02-15T08:39:28.248Z,14.30
2024-02-15T08:44:30.416Z,14.00
2024-02-15T08:49:33.083Z,13.90
2024-02-15T08:54:35.787Z,14.00
2024-02-15T08:59:38.893Z,14.30
2024-02-15T09:04:45.296Z,14.70
2024-02-15T09:09:49.211Z,14.80
2024-02-15T09:19:56.266Z,14.70
2024-02-15T09:24:58.899Z,15.00
2024-02-15T09:30:05.598Z,15.00
2024-02-15T09:35:13.515Z,15.30
2024-02-15T09:40:17.696Z,15.60
2024-02-15T09:45:25.236Z,15.80
2024-02-15T09:50:32.968Z,16.20
2024-02-15T09:55:46.957Z,16.30
2024-02-15T10:00:53.616Z,16.40
2024-02-15T10:05:59.389Z,16.40
2024-02-15T10:11:10.962Z,16.60
2024-02-15T10:16:26.767Z,16.60
2024-02-15T10:21:35.205Z,16.50
2024-02-15T10:26:38.141Z,16.50
2024-02-15T10:31:43.075Z,16.50
2024-02-15T10:36:45.233Z,16.50
2024-02-15T10:41:52.145Z,16.10
2024-02-15T10:46:55.472Z,16.20
2024-02-15T10:52:23.292Z,16.40
2024-02-15T10:57:27.895Z,16.40
2024-02-15T11:02:39.319Z,16.60
2024-02-15T11:07:43.685Z,17.00
2024-02-15T11:12:49.364Z,17.20
2024-02-15T11:17:57.792Z,17.60
2024-02-15T11:23:01.613Z,18.70
2024-02-15T11:28:28.601Z,19.60
2024-02-15T11:33:39.426Z,20.40
2024-02-15T11:38:45.310Z,20.60
2024-02-15T11:44:02.508Z,20.70
2024-02-15T11:49:07.354Z,21.40
2024-02-15T11:54:13.642Z,22.40
2024-02-15T11:59:35.417Z,22.60
2024-02-15T12:04:59.119Z,22.50
2024-02-15T12:10:20.113Z,23.70
2024-02-15T12:15:40.763Z,23.80
2024-02-15T12:20:42.949Z,23.70
2024-02-15T12:25:45.036Z,24.70
2024-02-15T12:30:48.329Z,23.80
2024-02-15T12:35:54.874Z,23.60
2024-02-15T12:40:57.241Z,23.90
2024-02-15T12:45:59.101Z,24.40
2024-02-15T12:51:15.280Z,22.80
2024-02-15T12:56:24.881Z,23.20
2024-02-15T13:01:28.639Z,22.60
2024-02-15T13:06:31.262Z,20.90
2024-02-15T13:11:35.348Z,20.80
2024-02-15T13:16:39.730Z,20.20
2024-02-15T13:21:43.201Z,20.10
2024-02-15T13:26:46.096Z,19.90
2024-02-15T13:31:47.899Z,19.80
2024-02-15T13:36:51.488Z,19.70
2024-02-15T13:41:53.536Z,19.90
2024-02-15T13:46:56.768Z,19.70
2024-02-15T13:52:06.739Z,19.50
2024-02-15T13:57:08.740Z,19.80
2024-02-15T14:02:11.317Z,19.50
2024-02-15T14:07:13.376Z,19.00
2024-02-15T14:12:17.552Z,18.80
2024-02-15T14:17:21.024Z,18.20
2024-02-15T14:22:24.833Z,18.00
2024-02-15T14:27:27.442Z,17.60
2024-02-15T14:32:48.457Z,17.60
2024-02-15T14:37:50.299Z,17.40
2024-02-15T14:42:56.842Z,17.30
2024-02-15T14:48:00.668Z,17.20
2024-02-15T14:53:02.580Z,17.00
2024-02-15T14:58:05.155Z,17.30
2024-02-15T15:03:07.353Z,17.50
2024-02-15T15:08:28.416Z,17.40
2024-02-15T15:13:30.651Z,17.30
2024-02-15T15:18:35.581Z,17.00
2024-02-15T15:23:37.593Z,16.80
2024-02-15T15:28:40.157Z,16.80
2024-02-15T15:33:43.265Z,16.50
2024-02-15T15:38:45.429Z,16.40
2024-02-15T15:43:47.633Z,16.30
2024-02-15T15:48:49.719Z,16.20
2024-02-15T15:53:52.824Z,16.10
2024-02-15T15:58:55.239Z,16.00
2024-02-15T16:03:57.552Z,16.00
2024-02-15T16:08:59.759Z,15.70
2024-02-15T16:19:05.830Z,15.40
2024-02-15T16:24:08.511Z,15.30
2024-02-15T16:29:11.148Z,15.10
2024-02-15T16:39:18.696Z,14.90
2024-02-15T16:44:20.676Z,14.90
2024-02-15T16:49:22.892Z,14.50
2024-02-15T17:09:38.710Z,14.40
2024-02-15T17:14:42.542Z,14.40
2024-02-15T17:19:44.499Z,14.30
2024-02-15T17:24:46.773Z,14.10
2024-02-15T17:29:48.833Z,14.00
2024-02-15T17:39:53.095Z,13.80
2024-02-15T17:44:55.140Z,13.70
2024-02-15T17:49:58.439Z,13.40
2024-02-15T18:00:03.954Z,13.30
2024-02-15T18:05:09.034Z,13.20
2024-02-15T18:10:16.556Z,13.10
2024-02-15T18:15:27.012Z,13.10
2024-02-15T18:20:29.293Z,12.90
2024-02-15T18:25:31.444Z,12.70
2024-02-15T18:30:35.525Z,12.60
2024-02-15T18:35:42.653Z,12.50
2024-02-15T18:50:52.592Z,12.10
2024-02-15T18:55:56.807Z,12.10
2024-02-15T19:06:03.146Z,11.60
2024-02-15T19:16:08.829Z,11.50
2024-02-15T19:21:11.006Z,11.50
2024-02-15T19:26:13.737Z,11.30
2024-02-15T19:31:15.612Z,11.30
2024-02-15T19:36:19.433Z,11.30
2024-02-15T19:46:34.289Z,11.20
2024-02-15T19:56:38.708Z,11.20
2024-02-15T20:01:45.517Z,11.20
2024-02-15T20:06:49.387Z,11.00
2024-02-15T20:11:51.650Z,11.00
2024-02-15T20:16:55.756Z,10.90
2024-02-15T20:21:57.681Z,10.90
2024-02-15T20:27:01.133Z,10.80
2024-02-15T20:32:03.055Z,10.80
2024-02-15T20:37:05.447Z,10.80
2024-02-15T20:42:07.550Z,10.80
2024-02-15T20:47:12.892Z,11.10
2024-02-15T20:52:15.278Z,10.50
2024-02-15T20:57:18.547Z,10.50
2024-02-15T21:02:21.744Z,10.50
2024-02-15T21:07:24.640Z,10.50
2024-02-15T21:12:27.450Z,10.50
2024-02-15T21:22:34.672Z,10.50
2024-02-15T21:47:50.102Z,10.30
2024-02-15T21:52:52.640Z,10.20
2024-02-15T21:57:57.115Z,10.20
2024-02-15T22:03:02.569Z,10.00
2024-02-15T22:08:04.655Z,10.10
2024-02-15T22:13:06.421Z,10.10
2024-02-15T22:33:24.953Z,10.00
2024-02-15T22:38:27.580Z,10.00
2024-02-15T22:53:44.101Z,9.90
2024-02-15T22:58:46.233Z,9.80
2024-02-15T23:03:48.029Z,10.10
2024-02-15T23:08:49.893Z,10.10
2024-02-15T23:39:23.609Z,9.80
2024-02-15T23:44:34.562Z,9.60
2024-02-15T23:49:37.301Z,9.60
2024-02-15T23:54:39.552Z,9.60
